Time;durP1;ratioP1;P1;durP2;ratioP2;P2;SDS_P1;SDS_P2;PMS_P1;PMS_P2;Temp;Humidity;BMP_temperature;BMP_pressure;BME280_temperature;BME280_humidity;BME280_pressure;Samples;Min_cycle;Max_cycle;Signal;HPM_P1;HPM_P2
2024/02/24 00:00:36;;;;;;;265.77;98.60;;;;;10.50;95057.00;;;;5027989;28;20216;-87
2024/02/24 00:03:25;;;;;;;284.57;99.60;;;;;10.50;95052.00;;;;5022778;28;20197;-85
2024/02/24 00:06:14;;;;;;;287.97;99.00;;;;;10.50;95056.00;;;;5030320;28;20214;-85
2024/02/24 00:09:03;;;;;;;337.27;107.40;;;;;10.60;95043.00;;;;5028633;28;20213;-85
2024/02/24 00:11:53;;;;;;;318.47;103.87;;;;;10.60;95026.00;;;;5028210;28;20232;-86
2024/02/24 00:14:42;;;;;;;327.93;98.00;;;;;10.50;95032.00;;;;5026579;28;20214;-85
2024/02/24 00:17:33;;;;;;;321.73;97.53;;;;;10.10;95012.00;;;;5025607;28;20221;-84
2024/02/24 00:20:22;;;;;;;312.47;98.43;;;;;9.70;95011.00;;;;5028297;28;20222;-85
2024/02/24 00:23:11;;;;;;;309.90;96.87;;;;;10.20;95030.00;;;;5029256;28;20210;-85
2024/02/24 00:26:00;;;;;;;336.23;100.43;;;;;10.40;95036.00;;;;5029049;28;20224;-85
2024/02/24 00:28:50;;;;;;;326.53;97.53;;;;;10.40;95042.00;;;;5029749;28;20212;-85
2024/02/24 00:31:40;;;;;;;312.60;96.00;;;;;10.40;95029.00;;;;5027816;28;20221;-84
2024/02/24 00:34:31;;;;;;;331.07;96.80;;;;;10.30;95037.00;;;;5024363;28;20216;-84
2024/02/24 00:37:20;;;;;;;309.03;96.87;;;;;10.30;95028.00;;;;5022215;28;20229;-84
2024/02/24 00:40:10;;;;;;;348.87;99.40;;;;;10.10;95032.00;;;;5027895;28;20205;-84
2024/02/24 00:42:59;;;;;;;296.40;101.77;;;;;9.70;95041.00;;;;5028564;28;20224;-84
2024/02/24 00:45:48;;;;;;;321.90;94.33;;;;;9.80;95048.00;;;;5026623;28;20212;-84
2024/02/24 00:48:37;;;;;;;320.00;96.60;;;;;10.00;95046.00;;;;5027444;28;20204;-84
2024/02/24 00:51:28;;;;;;;330.93;97.17;;;;;9.80;95065.00;;;;5022313;28;20225;-85
2024/02/24 00:54:17;;;;;;;334.17;98.80;;;;;9.60;95064.00;;;;5027770;28;20214;-85
2024/02/24 00:57:06;;;;;;;335.67;101.87;;;;;9.30;95087.00;;;;5026078;28;20221;-84
2024/02/24 00:59:55;;;;;;;327.33;100.93;;;;;9.20;95088.00;;;;5026784;28;20209;-84
2024/02/24 01:02:44;;;;;;;320.47;94.40;;;;;9.60;95083.00;;;;5029279;28;20228;-84
2024/02/24 01:05:33;;;;;;;326.20;95.07;;;;;9.90;95085.00;;;;5024187;28;20203;-84
2024/02/24 01:08:24;;;;;;;313.07;94.03;;;;;10.00;95071.00;;;;5021620;28;20205;-84
2024/02/24 01:11:13;;;;;;;318.93;94.27;;;;;10.10;95077.00;;;;5026380;28;20217;-84
2024/02/24 01:14:02;;;;;;;333.37;102.03;;;;;10.10;95076.00;;;;5028019;28;20209;-84
2024/02/24 01:16:51;;;;;;;316.77;93.93;;;;;10.00;95093.00;;;;5027190;28;20751;-86
2024/02/24 01:19:41;;;;;;;332.93;99.90;;;;;10.10;95088.00;;;;5026910;28;20201;-84
2024/02/24 01:22:30;;;;;;;316.53;95.60;;;;;10.10;95081.00;;;;5033556;28;20221;-86
2024/02/24 01:25:21;;;;;;;324.33;94.40;;;;;10.10;95096.00;;;;5028738;28;20210;-86
2024/02/24 01:28:11;;;;;;;321.97;99.07;;;;;10.10;95100.00;;;;5030268;28;20684;-85
2024/02/24 01:31:00;;;;;;;329.87;105.87;;;;;10.00;95095.00;;;;5025695;28;20206;-85
2024/02/24 01:33:49;;;;;;;324.17;94.57;;;;;10.10;95088.00;;;;5027258;28;20204;-85
2024/02/24 01:36:38;;;;;;;326.30;95.67;;;;;10.00;95100.00;;;;5029620;28;20208;-85
2024/02/24 01:39:27;;;;;;;331.47;97.17;;;;;9.90;95103.00;;;;5026756;28;20198;-84
2024/02/24 01:42:18;;;;;;;328.53;95.70;;;;;9.80;95107.00;;;;5029684;28;20235;-84
2024/02/24 01:45:08;;;;;;;334.97;99.57;;;;;9.80;95102.00;;;;5029936;28;20202;-85
2024/02/24 01:47:57;;;;;;;337.03;98.23;;;;;9.80;95107.00;;;;5029494;28;20201;-85
2024/02/24 01:50:46;;;;;;;318.63;96.63;;;;;9.70;95104.00;;;;5030674;28;20213;-85
2024/02/24 01:53:36;;;;;;;310.97;96.57;;;;;9.60;95102.00;;;;5023763;28;20209;-85
2024/02/24 01:56:25;;;;;;;307.53;94.33;;;;;9.60;95103.00;;;;5024260;28;20224;-84
2024/02/24 01:59:16;;;;;;;306.63;93.83;;;;;9.40;95109.00;;;;5027303;28;20225;-85
2024/02/24 02:02:05;;;;;;;316.27;98.47;;;;;9.30;95120.00;;;;5030084;28;20232;-85
2024/02/24 02:04:54;;;;;;;304.07;95.40;;;;;9.40;95126.00;;;;5028035;28;20209;-84
2024/02/24 02:07:43;;;;;;;309.50;93.97;;;;;9.40;95136.00;;;;5030584;28;20793;-84
2024/02/24 02:10:52;;;;;;;308.87;94.53;;;;;9.40;95127.00;;;;5028327;28;20581;-85
2024/02/24 02:13:41;;;;;;;293.67;94.60;;;;;9.20;95132.00;;;;5033931;28;20618;-84
2024/02/24 02:16:32;;;;;;;300.53;95.20;;;;;9.20;95129.00;;;;5032825;28;20228;-85
2024/02/24 02:19:21;;;;;;;295.20;98.23;;;;;9.00;95127.00;;;;5022985;28;20229;-85
2024/02/24 02:22:14;;;;;;;301.30;100.27;;;;;9.00;95137.00;;;;5025316;28;20690;-84
2024/02/24 02:25:05;;;;;;;283.13;98.77;;;;;9.00;95154.00;;;;5024395;28;20205;-83
2024/02/24 02:27:54;;;;;;;302.30;94.10;;;;;9.00;95146.00;;;;5032202;28;20778;-84
2024/02/24 02:30:43;;;;;;;292.63;98.80;;;;;8.90;95151.00;;;;5031362;28;20216;-84
2024/02/24 02:33:32;;;;;;;270.83;95.50;;;;;8.70;95161.00;;;;5025374;28;20212;-84
2024/02/24 02:36:21;;;;;;;301.93;91.60;;;;;8.80;95166.00;;;;5030601;28;20271;-85
2024/02/24 02:39:10;;;;;;;286.37;96.00;;;;;9.00;95181.00;;;;5029390;28;20225;-85
2024/02/24 02:42:01;;;;;;;305.73;94.47;;;;;8.90;95184.00;;;;5021970;28;20221;-84
2024/02/24 02:44:50;;;;;;;296.03;88.63;;;;;8.90;95197.00;;;;5030928;28;20205;-84
2024/02/24 02:47:39;;;;;;;295.17;93.77;;;;;8.80;95194.00;;;;5025814;28;20205;-85
2024/02/24 02:50:28;;;;;;;284.03;95.27;;;;;8.70;95194.00;;;;5024385;28;20212;-84
2024/02/24 02:53:17;;;;;;;292.47;91.70;;;;;8.50;95217.00;;;;5031474;28;20221;-83
2024/02/24 02:56:07;;;;;;;301.20;91.13;;;;;8.60;95225.00;;;;5023087;28;20208;-84
2024/02/24 02:58:58;;;;;;;301.73;96.57;;;;;8.50;95230.00;;;;5028801;28;20221;-83
2024/02/24 03:01:51;;;;;;;288.03;91.23;;;;;8.50;95228.00;;;;5030634;28;20248;-84
2024/02/24 03:04:40;;;;;;;294.53;89.10;;;;;8.40;95233.00;;;;5030603;28;20197;-84
2024/02/24 03:07:29;;;;;;;296.97;91.93;;;;;8.30;95244.00;;;;5030843;28;20209;-85
2024/02/24 03:10:19;;;;;;;287.57;90.23;;;;;8.20;95253.00;;;;5025393;28;20209;-84
2024/02/24 03:13:08;;;;;;;276.37;96.90;;;;;7.80;95251.00;;;;5029157;28;20221;-83
2024/02/24 03:15:58;;;;;;;281.97;95.20;;;;;7.60;95257.00;;;;5027193;28;20205;-84
2024/02/24 03:18:47;;;;;;;258.27;90.40;;;;;7.90;95263.00;;;;5021905;28;20232;-84
2024/02/24 03:21:37;;;;;;;252.07;86.67;;;;;7.90;95271.00;;;;5018428;28;20220;-84
2024/02/24 03:24:26;;;;;;;253.30;91.93;;;;;7.80;95280.00;;;;5030298;28;20209;-83
2024/02/24 03:27:15;;;;;;;242.13;87.93;;;;;7.60;95281.00;;;;5021943;28;20193;-84
2024/02/24 03:30:05;;;;;;;257.03;89.47;;;;;7.70;95287.00;;;;5030097;28;20693;-83
2024/02/24 03:32:55;;;;;;;265.17;89.63;;;;;7.70;95287.00;;;;5030899;28;20217;-84
2024/02/24 03:35:45;;;;;;;262.00;89.20;;;;;7.70;95295.00;;;;5027262;28;20839;-83
2024/02/24 03:38:34;;;;;;;260.67;91.93;;;;;7.70;95297.00;;;;5024748;28;20225;-83
2024/02/24 03:41:23;;;;;;;250.50;89.03;;;;;7.70;95290.00;;;;5027447;28;20228;-83
2024/02/24 03:44:12;;;;;;;266.70;92.00;;;;;7.60;95290.00;;;;5028677;28;20201;-85
2024/02/24 03:47:01;;;;;;;274.50;93.23;;;;;7.60;95295.00;;;;5028965;28;20220;-84
2024/02/24 03:49:52;;;;;;;279.50;90.13;;;;;7.50;95310.00;;;;5021205;28;20201;-84
2024/02/24 03:52:41;;;;;;;285.07;86.90;;;;;7.50;95309.00;;;;5026834;28;20225;-84
2024/02/24 03:55:30;;;;;;;309.40;89.40;;;;;7.50;95322.00;;;;5024474;28;20201;-84
2024/02/24 03:58:19;;;;;;;317.93;82.20;;;;;7.40;95310.00;;;;5022972;28;20205;-85
2024/02/24 04:01:08;;;;;;;352.77;94.63;;;;;7.30;95322.00;;;;5029604;28;20229;-84
2024/02/24 04:03:57;;;;;;;358.50;119.10;;;;;7.20;95336.00;;;;5029234;28;20708;-83
2024/02/24 04:06:48;;;;;;;333.77;91.27;;;;;7.20;95347.00;;;;5028949;28;20850;-85
2024/02/24 04:09:37;;;;;;;342.53;88.77;;;;;7.10;95344.00;;;;5023603;28;20436;-83
2024/02/24 04:12:26;;;;;;;346.40;103.83;;;;;7.00;95353.00;;;;5028718;28;20827;-83
2024/02/24 04:15:19;;;;;;;344.60;102.93;;;;;6.80;95360.00;;;;5029179;28;20489;-83
2024/02/24 04:18:08;;;;;;;189.87;82.20;;;;;6.80;95374.00;;;;5028104;28;20432;-83
2024/02/24 04:20:58;;;;;;;227.67;85.50;;;;;6.50;95379.00;;;;5026232;28;20217;-83
2024/02/24 04:23:48;;;;;;;226.03;84.97;;;;;6.70;95378.00;;;;5029767;28;20208;-83
2024/02/24 04:26:37;;;;;;;224.63;82.40;;;;;6.90;95383.00;;;;5024583;28;20259;-83
2024/02/24 04:29:26;;;;;;;240.57;82.17;;;;;6.90;95384.00;;;;5021634;28;20599;-84
2024/02/24 04:32:16;;;;;;;247.53;84.40;;;;;6.90;95399.00;;;;5028239;28;20232;-84
2024/02/24 04:35:05;;;;;;;266.10;89.03;;;;;6.90;95405.00;;;;5029277;28;20205;-82
2024/02/24 04:37:54;;;;;;;288.33;83.40;;;;;6.90;95412.00;;;;5028971;28;20439;-85
2024/02/24 04:40:45;;;;;;;330.17;89.20;;;;;6.70;95421.00;;;;5024640;28;20471;-84
2024/02/24 04:43:34;;;;;;;332.33;84.97;;;;;6.40;95427.00;;;;5019649;28;20857;-85
2024/02/24 04:46:24;;;;;;;344.17;101.37;;;;;6.20;95439.00;;;;5027456;28;20436;-84
2024/02/24 04:49:13;;;;;;;344.50;87.47;;;;;6.40;95449.00;;;;5028418;28;20937;-84
2024/02/24 04:52:04;;;;;;;324.53;93.63;;;;;6.70;95439.00;;;;5027916;28;20856;-83
2024/02/24 04:54:53;;;;;;;150.57;71.77;;;4.40;99.90;6.80;95441.00;;;;5018294;28;20436;-84
2024/02/24 04:57:43;;;;;;;199.77;77.50;;;4.40;99.90;6.80;95454.00;;;;5019464;28;20208;-84
2024/02/24 05:00:32;;;;;;;280.60;83.70;;;4.40;99.90;6.50;95453.00;;;;5028231;28;20686;-84
2024/02/24 05:03:21;;;;;;;340.93;104.43;;;4.40;99.90;6.40;95441.00;;;;5021372;28;20432;-84
2024/02/24 05:06:10;;;;;;;304.73;87.33;;;4.30;99.90;6.60;95458.00;;;;5027367;28;20440;-83
2024/02/24 05:08:59;;;;;;;316.37;93.67;;;4.30;99.90;6.70;95460.00;;;;5026731;28;20467;-83
2024/02/24 05:11:48;;;;;;;311.47;87.93;;;4.30;99.90;6.70;95445.00;;;;5028232;28;20455;-82
2024/02/24 05:14:38;;;;;;;336.70;94.90;;;4.30;99.90;6.70;95460.00;;;;5027319;28;20420;-83
2024/02/24 05:17:27;;;;;;;252.83;79.00;;;4.30;99.90;6.70;95460.00;;;;5020718;28;20428;-84
2024/02/24 05:20:16;;;;;;;285.83;83.43;;;4.30;99.90;6.70;95458.00;;;;5024598;28;20242;-83
2024/02/24 05:23:05;;;;;;;332.20;82.93;;;4.30;99.90;6.40;95459.00;;;;5024979;28;20459;-83
2024/02/24 05:25:54;;;;;;;287.83;89.37;;;4.20;99.90;6.50;95474.00;;;;5024580;28;20424;-82
2024/02/24 05:28:43;;;;;;;334.07;81.80;;;4.20;99.90;6.50;95474.00;;;;5026744;28;20201;-82
2024/02/24 05:31:33;;;;;;;327.07;95.10;;;4.20;99.90;6.50;95484.00;;;;5023472;28;20961;-82
2024/02/24 05:34:23;;;;;;;302.67;90.07;;;4.20;99.90;6.60;95500.00;;;;5026494;28;20437;-83
2024/02/24 05:37:12;;;;;;;307.63;89.73;;;4.20;99.90;6.50;95497.00;;;;5026782;28;20571;-82
2024/02/24 05:40:01;;;;;;;291.17;84.63;;;4.20;99.90;6.60;95495.00;;;;5023867;28;20981;-83
2024/02/24 05:42:50;;;;;;;290.53;83.67;;;4.20;99.90;6.60;95501.00;;;;5027717;28;20444;-84
2024/02/24 05:45:40;;;;;;;266.43;80.93;;;4.20;99.90;6.60;95501.00;;;;5031626;28;20201;-82
2024/02/24 05:48:31;;;;;;;284.80;85.63;;;4.20;99.90;6.20;95515.00;;;;5028609;28;20922;-84
2024/02/24 05:51:21;;;;;;;274.47;82.23;;;4.10;99.90;6.30;95526.00;;;;5023860;28;20217;-83
2024/02/24 05:54:10;;;;;;;291.57;87.40;;;4.10;99.90;6.00;95516.00;;;;5029181;28;20908;-84
2024/02/24 05:56:59;;;;;;;287.10;84.20;;;4.00;99.90;6.00;95531.00;;;;5029629;28;20431;-83
2024/02/24 05:59:47;;;;;;;306.30;86.20;;;4.00;99.90;6.00;95520.00;;;;5027671;28;20460;-83
2024/02/24 06:02:36;;;;;;;313.03;79.20;;;3.90;99.90;6.10;95524.00;;;;5030593;28;20452;-83
2024/02/24 06:05:26;;;;;;;336.20;85.90;;;3.90;99.90;5.90;95531.00;;;;5030976;28;20432;-84
2024/02/24 06:08:15;;;;;;;330.63;83.07;;;3.80;99.90;6.00;95546.00;;;;5030206;28;20991;-83
2024/02/24 06:11:04;;;;;;;344.63;92.50;;;3.80;99.90;6.10;95548.00;;;;5033324;28;20463;-83
2024/02/24 06:13:53;;;;;;;319.57;87.00;;;3.80;99.90;6.10;95551.00;;;;5038924;28;20440;-84
2024/02/24 06:16:42;;;;;;;331.67;85.10;;;3.80;99.90;6.00;95557.00;;;;5027967;28;20444;-85
2024/02/24 06:19:31;;;;;;;328.23;80.47;;;3.80;99.90;5.20;95549.00;;;;5026456;28;20897;-85
2024/02/24 06:22:21;;;;;;;190.80;75.20;;;3.70;99.90;5.60;95550.00;;;;5031647;28;20464;-84
2024/02/24 06:25:11;;;;;;;259.73;89.43;;;3.60;99.90;5.90;95563.00;;;;5037585;28;20432;-83
2024/02/24 06:27:59;;;;;;;261.60;84.73;;;3.60;99.90;6.00;95575.00;;;;5031394;28;20427;-85
2024/02/24 06:30:48;;;;;;;250.30;80.77;;;3.60;99.90;5.60;95579.00;;;;5026861;28;20815;-84
2024/02/24 06:33:37;;;;;;;249.73;79.63;;;3.60;99.90;5.60;95577.00;;;;5027002;28;20424;-83
2024/02/24 06:36:26;;;;;;;248.67;83.37;;;3.50;99.90;5.50;95584.00;;;;5026022;28;21010;-84
2024/02/24 06:39:16;;;;;;;272.03;84.90;;;3.40;99.90;5.80;95603.00;;;;5030283;28;20960;-83
2024/02/24 06:42:05;;;;;;;337.47;85.07;;;3.50;99.90;6.00;95599.00;;;;5029115;28;20453;-83
2024/02/24 06:44:54;;;;;;;321.33;87.70;;;3.50;99.90;6.10;95600.00;;;;5032778;28;20451;-83
2024/02/24 06:47:43;;;;;;;479.50;228.83;;;4.10;99.90;6.10;95609.00;;;;4933377;28;20444;-84
2024/02/24 06:50:32;;;;;;;306.60;104.27;;;3.60;99.90;5.90;95613.00;;;;4949135;28;21502;-83
2024/02/24 06:53:21;;;;;;;329.00;82.13;;;3.60;99.90;6.00;95608.00;;;;5031118;28;20435;-83
2024/02/24 06:56:12;;;;;;;461.93;199.73;;;3.60;99.90;5.90;95619.00;;;;4965946;28;20448;-83
2024/02/24 06:59:05;;;;;;;337.30;97.87;;;3.70;99.90;5.70;95621.00;;;;4992631;28;20459;-82
2024/02/24 07:01:56;;;;;;;244.77;85.57;;;3.70;99.90;5.80;95619.00;;;;5025468;28;20483;-82
2024/02/24 07:04:45;;;;;;;342.97;154.90;;;3.70;99.90;6.20;95616.00;;;;4967762;28;20440;-83
2024/02/24 07:07:34;;;;;;;398.87;205.47;;;3.70;99.90;5.50;95611.00;;;;5001303;28;22178;-84
2024/02/24 07:10:23;;;;;;;277.33;115.77;;;3.70;99.90;5.60;95613.00;;;;4966331;28;21253;-84
2024/02/24 07:13:13;;;;;;;379.70;184.47;;;3.60;99.90;5.60;95620.00;;;;4969763;28;20445;-82
2024/02/24 07:16:02;;;;;;;232.77;83.33;;;3.60;99.90;5.90;95632.00;;;;4979332;28;20452;-83
2024/02/24 07:18:51;;;;;;;203.17;73.33;;;3.60;99.90;6.20;95625.00;;;;4991333;28;20448;-83
2024/02/24 07:21:43;;;;;;;188.33;103.77;;;3.70;99.90;6.30;95635.00;;;;5020525;28;20889;-83
2024/02/24 07:24:31;;;;;;;155.50;76.47;;;3.80;99.90;6.30;95627.00;;;;5012267;28;20206;-82
2024/02/24 07:27:20;;;;;;;150.27;73.67;;;3.90;99.90;6.50;95639.00;;;;5027515;28;20208;-82
2024/02/24 07:30:12;;;;;;;158.57;73.87;;;3.90;99.90;6.30;95645.00;;;;5018092;28;20209;-83
2024/02/24 07:33:01;;;;;;;169.83;79.27;;;4.00;99.90;6.50;95647.00;;;;5010848;28;20722;-83
2024/02/24 07:35:50;;;;;;;223.80;82.80;;;4.10;99.90;6.50;95661.00;;;;5020285;28;20202;-83
2024/02/24 07:38:40;;;;;;;211.67;77.97;;;4.10;99.90;6.50;95654.00;;;;5027924;28;20210;-82
2024/02/24 07:41:29;;;;;;;211.93;76.00;;;4.20;99.90;6.60;95657.00;;;;5027686;28;20268;-83
2024/02/24 07:44:18;;;;;;;227.47;84.03;;;4.10;99.90;6.60;95671.00;;;;5028759;28;20213;-83
2024/02/24 07:47:08;;;;;;;240.73;91.63;;;4.30;99.90;6.60;95666.00;;;;5029548;28;20206;-83
2024/02/24 07:49:57;;;;;;;215.33;78.63;;;4.30;99.90;6.50;95680.00;;;;5024973;28;20209;-84
2024/02/24 07:52:46;;;;;;;216.63;79.47;;;4.30;99.90;6.60;95686.00;;;;5026895;28;20939;-82
2024/02/24 07:55:35;;;;;;;225.50;80.13;;;4.40;99.90;6.60;95687.00;;;;5036637;28;20459;-82
2024/02/24 07:58:24;;;;;;;234.63;86.60;;;4.40;99.90;7.30;95697.00;;;;5030999;28;20204;-82
2024/02/24 08:01:13;;;;;;;241.93;88.87;;;4.60;99.90;7.50;95696.00;;;;5032516;28;20248;-83
2024/02/24 08:04:04;;;;;;;252.93;92.90;;;4.70;99.90;7.70;95703.00;;;;5030878;28;20698;-83
2024/02/24 08:06:52;;;;;;;236.20;84.57;;;4.80;99.90;7.80;95697.00;;;;5030492;28;20209;-83
2024/02/24 08:09:41;;;;;;;238.77;87.13;;;5.00;99.90;8.00;95701.00;;;;5022237;28;20608;-83
2024/02/24 08:12:30;;;;;;;244.10;87.33;;;5.10;99.90;7.90;95715.00;;;;5029985;28;20229;-83
2024/02/24 08:15:19;;;;;;;254.77;90.67;;;5.20;99.90;8.20;95718.00;;;;5028127;28;20223;-83
2024/02/24 08:18:08;;;;;;;255.23;92.43;;;5.40;99.90;8.40;95711.00;;;;5027706;28;20225;-84
2024/02/24 08:21:00;;;;;;;261.10;90.43;;;5.70;99.90;8.50;95710.00;;;;5025803;28;20315;-84
2024/02/24 08:23:48;;;;;;;252.93;88.03;;;5.60;99.90;8.70;95721.00;;;;5025858;28;20205;-82
2024/02/24 08:26:39;;;;;;;260.70;87.47;;;5.70;99.90;8.70;95716.00;;;;5030487;28;20215;-83
2024/02/24 08:29:31;;;;;;;263.10;89.57;;;5.90;99.90;9.00;95732.00;;;;5029544;28;20609;-82
2024/02/24 08:32:20;;;;;;;274.60;92.07;;;6.00;99.90;9.10;95731.00;;;;5032721;28;20217;-83
2024/02/24 08:35:09;;;;;;;283.07;99.57;;;6.20;99.90;9.20;95740.00;;;;5031744;28;20204;-83
2024/02/24 08:38:00;;;;;;;268.20;88.83;;;6.30;99.90;9.30;95739.00;;;;5031280;28;20205;-84
2024/02/24 08:40:49;;;;;;;279.97;90.13;;;6.40;99.90;8.70;95742.00;;;;5028886;28;20232;-83
2024/02/24 08:43:37;;;;;;;275.87;91.20;;;6.50;99.90;8.30;95742.00;;;;5028353;28;20223;-83
2024/02/24 08:46:26;;;;;;;279.87;93.33;;;6.40;99.90;8.50;95747.00;;;;5036352;28;20209;-83
2024/02/24 08:49:15;;;;;;;294.53;100.40;;;6.40;99.90;8.50;95754.00;;;;5027570;28;20205;-83
2024/02/24 08:52:05;;;;;;;291.53;103.13;;;6.40;99.90;8.90;95753.00;;;;5023177;28;20230;-84
2024/02/24 08:54:55;;;;;;;278.83;92.53;;;6.40;99.90;9.40;95765.00;;;;5024399;28;20292;-83
2024/02/24 08:57:44;;;;;;;274.93;93.23;;;6.60;99.90;9.40;95777.00;;;;5027374;28;20678;-83
2024/02/24 09:00:33;;;;;;;284.20;95.50;;;6.70;99.90;10.10;95775.00;;;;5027191;28;20205;-84
2024/02/24 09:03:22;;;;;;;271.30;90.27;;;6.90;99.90;10.10;95772.00;;;;5028095;28;20205;-84
2024/02/24 09:06:11;;;;;;;300.67;103.73;;;7.10;99.90;10.00;95781.00;;;;5026998;28;20223;-84
2024/02/24 09:09:00;;;;;;;294.07;101.37;;;7.20;99.90;10.20;95789.00;;;;5021204;28;20689;-84
2024/02/24 09:11:51;;;;;;;289.60;95.57;;;7.30;99.90;10.30;95790.00;;;;5025643;28;20217;-84
2024/02/24 09:14:40;;;;;;;287.77;94.87;;;7.40;99.90;10.20;95796.00;;;;5025400;28;20197;-84
2024/02/24 09:17:30;;;;;;;297.10;98.20;;;7.50;99.90;10.10;95792.00;;;;5026693;28;20201;-84
2024/02/24 09:20:19;;;;;;;293.43;98.40;;;8.40;99.90;10.20;95788.00;;;;5027790;28;20209;-84
2024/02/24 09:23:08;;;;;;;286.23;99.63;;;7.60;99.90;10.60;95784.00;;;;5030047;28;20710;-85
2024/02/24 09:25:57;;;;;;;289.43;98.17;;;8.80;99.90;10.70;95779.00;;;;5029272;28;20209;-85
2024/02/24 09:28:47;;;;;;;288.77;96.67;;;7.80;99.90;10.50;95790.00;;;;5029140;28;20197;-84
2024/02/24 09:31:36;;;;;;;299.87;101.93;;;7.90;99.90;10.00;95788.00;;;;5023035;28;20612;-84
2024/02/24 09:34:25;;;;;;;306.13;103.80;;;7.90;99.90;10.50;95793.00;;;;5026086;28;20702;-84
2024/02/24 09:37:14;;;;;;;303.57;102.93;;;8.00;99.90;10.60;95798.00;;;;5029610;28;20643;-85
2024/02/24 09:40:07;;;;;;;319.50;111.33;;;8.10;99.90;10.80;95797.00;;;;5029678;28;20212;-84
2024/02/24 09:43:04;;;;;;;301.40;100.53;;;8.20;99.90;10.80;95796.00;;;;5030117;28;20237;-86
2024/02/24 09:45:55;;;;;;;307.57;101.03;;;8.30;99.90;10.90;95803.00;;;;5025508;28;20580;-86
2024/02/24 09:48:47;;;;;;;307.80;101.23;;;8.30;99.90;10.90;95817.00;;;;5028400;28;20205;-86
2024/02/24 09:51:36;;;;;;;312.30;104.00;;;8.40;99.90;10.90;95821.00;;;;5029944;28;20287;-85
2024/02/24 09:54:26;;;;;;;313.83;107.53;;;8.40;99.90;11.30;95835.00;;;;5026664;28;20659;-85
2024/02/24 09:57:18;;;;;;;321.07;111.20;;;8.50;99.90;11.30;95832.00;;;;5028444;28;20589;-84
2024/02/24 10:00:08;;;;;;;325.83;114.43;;;8.60;99.90;11.80;95836.00;;;;5025292;28;20213;-85
2024/02/24 10:03:01;;;;;;;319.43;107.00;;;8.70;99.90;12.00;95837.00;;;;5029155;28;20229;-86
2024/02/24 10:05:50;;;;;;;316.23;107.80;;;8.90;99.90;12.20;95837.00;;;;5029756;28;20224;-86
2024/02/24 10:08:39;;;;;;;326.23;106.33;;;9.10;99.90;12.60;95842.00;;;;5028116;28;20577;-86
2024/02/24 10:11:29;;;;;;;326.67;106.50;;;9.30;99.90;12.40;95839.00;;;;5028497;28;20225;-85
2024/02/24 10:14:18;;;;;;;348.80;116.23;;;9.40;99.90;12.50;95836.00;;;;5026075;28;20197;-87
2024/02/24 10:17:07;;;;;;;343.47;115.57;;;9.60;99.90;12.50;95843.00;;;;5029273;28;20720;-86
2024/02/24 10:19:58;;;;;;;338.63;111.43;;;9.60;99.90;12.90;95854.00;;;;5023478;28;20205;-86
2024/02/24 10:22:47;;;;;;;336.50;109.57;;;9.80;99.90;13.20;95850.00;;;;5031071;28;20703;-86
2024/02/24 10:25:36;;;;;;;346.20;116.67;;;9.90;99.90;13.10;95845.00;;;;5028674;28;20198;-86
2024/02/24 10:28:28;;;;;;;351.00;118.23;;;10.10;99.90;13.30;95845.00;;;;5027874;28;20205;-86
2024/02/24 10:31:18;;;;;;;346.13;119.83;;;10.20;99.90;13.40;95851.00;;;;5029458;28;20221;-86
2024/02/24 10:34:07;;;;;;;369.90;132.47;;;10.30;99.90;13.80;95845.00;;;;5024956;28;20209;-85
2024/02/24 10:37:00;;;;;;;357.10;121.57;;;10.40;99.90;14.20;95845.00;;;;5024334;28;20210;-85
2024/02/24 10:39:52;;;;;;;364.07;124.83;;;10.70;99.90;14.10;95854.00;;;;5028950;28;20244;-85
2024/02/24 10:42:42;;;;;;;358.67;121.23;;;10.90;99.90;14.50;95855.00;;;;5020546;28;20255;-85
2024/02/24 10:45:31;;;;;;;361.63;124.37;;;11.20;99.90;13.80;95854.00;;;;5030732;28;20201;-85
2024/02/24 10:48:22;;;;;;;362.67;126.47;;;11.20;99.90;14.10;95862.00;;;;5028172;28;20213;-85
2024/02/24 10:51:14;;;;;;;388.67;147.03;;;11.30;99.90;14.60;95862.00;;;;5022719;28;20225;-86
2024/02/24 10:54:10;;;;;;;373.63;133.87;;;11.50;99.90;14.70;95862.00;;;;5028382;28;20205;-86
2024/02/24 10:57:02;;;;;;;364.60;132.17;;;11.70;99.90;15.10;95846.00;;;;5024990;28;20247;-85
2024/02/24 10:59:51;;;;;;;372.53;135.43;;;11.80;99.90;15.10;95860.00;;;;5027492;28;20201;-85
2024/02/24 11:02:41;;;;;;;373.73;137.83;;;12.00;99.90;15.20;95853.00;;;;5025936;28;20508;-85
2024/02/24 11:05:30;;;;;;;363.60;135.27;;;12.10;99.90;15.60;95862.00;;;;5028850;28;20721;-86
2024/02/24 11:08:36;;;;;;;391.23;154.50;;;12.30;99.90;15.70;95851.00;;;;5026694;28;20401;-86
2024/02/24 11:11:26;;;;;;;375.40;146.87;;;12.50;99.90;15.90;95850.00;;;;5027860;28;20227;-86
2024/02/24 11:14:18;;;;;;;383.00;155.03;;;12.70;99.90;16.00;95845.00;;;;5028533;28;20209;-86
2024/02/24 11:17:07;;;;;;;390.23;164.97;;;12.90;99.90;15.70;95846.00;;;;5028341;28;20567;-85
2024/02/24 11:19:56;;;;;;;384.43;156.10;;;13.00;99.90;16.40;95855.00;;;;5027393;28;20205;-85
2024/02/24 11:22:45;;;;;;;375.63;155.47;;;13.10;99.90;16.20;95849.00;;;;5024397;28;20225;-85
2024/02/24 11:25:33;;;;;;;382.60;161.20;;;12.40;99.90;16.30;95855.00;;;;5025582;28;21231;-85
2024/02/24 11:28:25;;;;;;;387.07;166.43;;;13.30;99.90;16.10;95850.00;;;;5033508;28;20197;-86
2024/02/24 11:31:18;;;;;;;384.70;166.83;;;13.40;99.90;16.50;95849.00;;;;5029644;28;20233;-85
2024/02/24 11:34:08;;;;;;;396.17;175.20;;;13.50;99.90;16.60;95856.00;;;;5032721;28;20260;-87
2024/02/24 11:36:58;;;;;;;378.67;164.80;;;13.50;99.90;16.60;95862.00;;;;5039734;28;20752;-86
2024/02/24 11:39:47;;;;;;;381.07;169.10;;;13.60;99.90;16.60;95861.00;;;;5023576;28;20200;-86
2024/02/24 11:42:37;;;;;;;376.40;163.37;;;13.60;99.90;14.40;95851.00;;;;5028584;28;20229;-87
2024/02/24 11:45:27;;;;;;;376.60;159.17;;;13.30;99.90;15.00;95866.00;;;;5025278;28;20197;-85
2024/02/24 11:48:19;;;;;;;371.30;150.93;;;13.00;99.90;14.40;95846.00;;;;5024801;28;20217;-86
2024/02/24 11:51:08;;;;;;;390.63;159.90;;;12.70;99.90;14.60;95846.00;;;;5024255;28;20229;-87
2024/02/24 11:53:57;;;;;;;373.60;148.60;;;12.40;99.90;14.30;95845.00;;;;5023002;28;20206;-87
2024/02/24 11:56:46;;;;;;;374.37;147.33;;;12.30;99.90;15.20;95860.00;;;;5023711;28;20209;-85
2024/02/24 11:59:37;;;;;;;382.73;155.50;;;12.20;99.90;14.90;95866.00;;;;5026065;28;20205;-85
2024/02/24 12:02:28;;;;;;;375.53;144.73;;;12.20;99.90;15.10;95858.00;;;;5025754;28;20221;-86
2024/02/24 12:05:17;;;;;;;380.73;148.87;;;12.30;99.90;15.30;95858.00;;;;5023808;28;20208;-85
2024/02/24 12:08:09;;;;;;;380.20;147.10;;;12.30;99.90;13.60;95861.00;;;;5028710;28;20205;-87
2024/02/24 12:10:58;;;;;;;369.87;138.50;;;11.80;99.90;13.90;95862.00;;;;5028649;28;20201;-85
2024/02/24 12:13:47;;;;;;;370.03;139.63;;;11.80;99.90;14.60;95873.00;;;;5030386;28;20212;-85
2024/02/24 12:16:37;;;;;;;374.73;153.27;;;11.90;99.90;14.40;95879.00;;;;5029233;28;20201;-85
2024/02/24 12:19:30;;;;;;;373.63;152.27;;;11.90;99.90;13.90;95866.00;;;;5028003;28;20201;-85
2024/02/24 12:22:19;;;;;;;351.73;144.87;;;11.80;99.90;13.50;95871.00;;;;5028913;28;20242;-86
2024/02/24 12:25:14;;;;;;;345.73;149.03;;;11.70;99.90;13.00;95869.00;;;;5023445;28;20706;-86
2024/02/24 12:28:05;;;;;;;326.50;131.83;;;11.50;99.90;12.40;95857.00;;;;5022735;28;20614;-87
2024/02/24 12:30:54;;;;;;;362.67;129.70;;;11.10;99.90;12.80;95869.00;;;;5028046;28;20209;-84
2024/02/24 12:33:45;;;;;;;364.13;135.43;;;11.00;99.90;13.00;95872.00;;;;5024288;28;20205;-84
2024/02/24 12:36:36;;;;;;;364.87;133.10;;;11.00;99.90;12.90;95872.00;;;;5028249;28;20205;-87
2024/02/24 12:39:26;;;;;;;365.13;123.70;;;10.90;99.90;12.70;95858.00;;;;5026684;28;20201;-84
2024/02/24 12:42:15;;;;;;;347.23;127.87;;;10.90;99.90;12.80;95864.00;;;;5027998;28;20213;-85
2024/02/24 12:45:05;;;;;;;360.43;120.63;;;10.90;99.90;12.50;95856.00;;;;5025985;28;20212;-91